Time,TemperatureF,DewpointF,PressureIn,WindDirection,WindDirectionDegrees,WindSpeedMPH,WindSpeedGustMPH,Humidity,HourlyPrecipIn,Conditions,Clouds,dailyrainin,SoftwareType,DateUTC
2013-05-31 00:02:00,68.0,64.6,30.12,West,270,0.0,0.0,89,0.00,,,0.00,WSDL version 420,2013-05-31 04:02:00,
2013-05-31 00:06:00,67.9,64.7,30.12,West,270,0.0,0.0,90,0.00,,,0.00,WSDL version 420,2013-05-31 04:06:00,
2013-05-31 00:09:00,67.7,64.7,30.12,West,270,0.0,0.0,90,0.00,,,0.00,WSDL version 420,2013-05-31 04:09:00,
2013-05-31 00:15:00,67.5,64.4,30.12,West,270,0.0,0.0,90,0.00,,,0.00,WSDL version 420,2013-05-31 04:15:00,
2013-05-31 00:21:00,67.5,64.4,30.12,West,270,0.0,0.0,90,0.00,,,0.00,WSDL version 420,2013-05-31 04:21:00,
2013-05-31 00:23:00,67.5,64.4,30.12,West,270,0.0,0.0,90,0.00,,,0.00,WSDL version 420,2013-05-31 04:23:00,
2013-05-31 00:26:00,67.4,64.4,30.12,West,270,0.0,0.0,90,0.00,,,0.00,WSDL version 420,2013-05-31 04:26:00,
2013-05-31 00:32:00,67.1,64.1,30.12,West,270,0.0,0.0,90,0.00,,,0.00,WSDL version 420,2013-05-31 04:32:00,
2013-05-31 00:38:00,67.2,64.5,30.12,West,270,0.0,0.0,91,0.00,,,0.00,WSDL version 420,2013-05-31 04:38:00,
2013-05-31 00:44:00,67.1,64.4,30.12,West,270,0.0,0.0,91,0.00,,,0.00,WSDL version 420,2013-05-31 04:44:00,
2013-05-31 00:50:00,67.0,64.3,30.12,West,270,0.0,0.0,91,0.00,,,0.00,WSDL version 420,2013-05-31 04:50:00,
2013-05-31 00:56:00,66.9,64.2,30.12,West,270,0.0,0.0,91,0.00,,,0.00,WSDL version 420,2013-05-31 04:56:00,
2013-05-31 01:02:00,66.7,64.1,30.12,West,270,0.0,0.0,91,0.00,,,0.00,WSDL version 420,2013-05-31 05:02:00,
2013-05-31 01:08:00,66.7,64.1,30.12,West,270,0.0,0.0,91,0.00,,,0.00,WSDL version 420,2013-05-31 05:08:00,
2013-05-31 01:14:00,66.7,64.1,30.12,West,270,0.0,0.0,91,0.00,,,0.00,WSDL version 420,2013-05-31 05:14:00,
2013-05-31 01:20:00,66.6,63.9,30.12,West,270,0.0,0.0,91,0.00,,,0.00,WSDL version 420,2013-05-31 05:20:00,
2013-05-31 01:26:00,66.7,64.1,30.12,West,270,0.0,0.0,92,0.00,,,0.00,WSDL version 420,2013-05-31 05:26:00,
2013-05-31 01:32:00,66.6,64.3,30.12,West,270,0.0,0.0,92,0.00,,,0.00,WSDL version 420,2013-05-31 05:32:00,
2013-05-31 01:38:00,66.5,63.9,30.12,West,270,0.0,0.0,91,0.00,,,0.00,WSDL version 420,2013-05-31 05:38:00,
2013-05-31 01:44:00,66.3,63.8,30.12,West,270,0.0,0.0,91,0.00,,,0.00,WSDL version 420,2013-05-31 05:44:00,
2013-05-31 01:50:00,66.2,63.9,30.12,West,270,0.0,0.0,92,0.00,,,0.00,WSDL version 420,2013-05-31 05:50:00,
2013-05-31 01:56:00,66.2,63.9,30.12,West,270,0.0,0.0,92,0.00,,,0.00,WSDL version 420,2013-05-31 05:56:00,
2013-05-31 02:02:00,66.2,63.9,30.12,West,270,0.0,0.0,92,0.00,,,0.00,WSDL version 420,2013-05-31 06:02:00,
2013-05-31 02:08:00,66.0,63.7,30.12,West,270,0.0,0.0,92,0.00,,,0.00,WSDL version 420,2013-05-31 06:08:00,
2013-05-31 02:14:00,66.0,63.7,30.12,West,270,0.0,0.0,92,0.00,,,0.00,WSDL version 420,2013-05-31 06:14:00,
2013-05-31 02:21:00,65.8,63.5,30.12,West,270,0.0,0.0,92,0.00,,,0.00,WSDL version 420,2013-05-31 06:21:00,
2013-05-31 02:27:00,65.7,63.3,30.12,West,270,0.0,0.0,92,0.00,,,0.00,WSDL version 420,2013-05-31 06:27:00,
2013-05-31 02:33:00,65.7,63.3,30.12,West,270,0.0,0.0,92,0.00,,,0.00,WSDL version 420,2013-05-31 06:33:00,
2013-05-31 02:39:00,65.7,63.3,30.12,West,270,0.0,0.0,92,0.00,,,0.00,WSDL version 420,2013-05-31 06:39:00,
2013-05-31 02:45:00,65.5,63.3,30.12,West,270,0.0,0.0,93,0.00,,,0.00,WSDL version 420,2013-05-31 06:45:00,
2013-05-31 02:51:00,65.7,63.7,30.12,West,270,0.0,0.0,93,0.00,,,0.00,WSDL version 420,2013-05-31 06:51:00,
2013-05-31 02:57:00,65.4,63.0,30.12,West,270,0.0,0.0,92,0.00,,,0.00,WSDL version 420,2013-05-31 06:57:00,
2013-05-31 03:03:00,65.3,63.2,30.12,West,270,0.0,0.0,93,0.00,,,0.00,WSDL version 420,2013-05-31 07:03:00,
2013-05-31 03:09:00,65.1,63.1,30.12,West,270,0.0,0.0,93,0.00,,,0.00,WSDL version 420,2013-05-31 07:09:00,
2013-05-31 03:15:00,65.1,63.1,30.12,West,270,0.0,0.0,93,0.00,,,0.00,WSDL version 420,2013-05-31 07:15:00,
2013-05-31 03:21:00,65.0,63.0,30.12,West,270,0.0,0.0,93,0.00,,,0.00,WSDL version 420,2013-05-31 07:21:00,
2013-05-31 03:27:00,65.1,63.1,30.12,West,270,0.0,0.0,93,0.00,,,0.00,WSDL version 420,2013-05-31 07:27:00,
2013-05-31 03:33:00,65.2,63.3,30.09,West,270,0.0,0.0,93,0.00,,,0.00,WSDL version 420,2013-05-31 07:33:00,
2013-05-31 03:39:00,65.1,63.1,30.09,West,270,0.0,0.0,93,0.00,,,0.00,WSDL version 420,2013-05-31 07:39:00,
2013-05-31 03:45:00,64.9,63.0,30.09,West,270,0.0,0.0,93,0.00,,,0.00,WSDL version 420,2013-05-31 07:45:00,
2013-05-31 03:51:00,64.8,62.9,30.12,West,270,0.0,0.0,93,0.00,,,0.00,WSDL version 420,2013-05-31 07:51:00,
2013-05-31 03:57:00,64.8,62.8,30.12,West,270,0.0,0.0,93,0.00,,,0.00,WSDL version 420,2013-05-31 07:57:00,
2013-05-31 04:03:00,64.6,62.7,30.12,West,270,0.0,0.0,93,0.00,,,0.00,WSDL version 420,2013-05-31 08:03:00,
2013-05-31 04:09:00,64.8,62.8,30.12,West,270,0.0,0.0,93,0.00,,,0.00,WSDL version 420,2013-05-31 08:09:00,
2013-05-31 04:15:00,64.8,62.8,30.12,West,270,0.0,0.0,93,0.00,,,0.00,WSDL version 420,2013-05-31 08:15:00,
2013-05-31 04:21:00,64.6,62.6,30.12,West,270,0.0,0.0,93,0.00,,,0.00,WSDL version 420,2013-05-31 08:21:00,
2013-05-31 04:27:00,64.6,62.7,30.12,West,270,0.0,0.0,93,0.00,,,0.00,WSDL version 420,2013-05-31 08:27:00,
2013-05-31 04:33:00,64.5,62.5,30.12,West,270,0.0,0.0,93,0.00,,,0.00,WSDL version 420,2013-05-31 08:33:00,
2013-05-31 04:39:00,64.4,62.4,30.12,West,270,0.0,0.0,93,0.00,,,0.00,WSDL version 420,2013-05-31 08:39:00,
2013-05-31 04:46:00,64.3,62.5,30.12,West,270,0.0,0.0,93,0.00,,,0.00,WSDL version 420,2013-05-31 08:46:00,
2013-05-31 04:52:00,64.2,62.6,30.12,West,270,0.0,0.0,94,0.00,,,0.00,WSDL version 420,2013-05-31 08:52:00,
2013-05-31 04:58:00,64.2,62.6,30.12,West,270,0.0,0.0,94,0.00,,,0.00,WSDL version 420,2013-05-31 08:58:00,
2013-05-31 05:04:00,63.9,62.2,30.12,West,270,0.0,0.0,94,0.00,,,0.00,WSDL version 420,2013-05-31 09:04:00,
2013-05-31 05:10:00,63.9,62.2,30.12,West,270,0.0,0.0,94,0.00,,,0.00,WSDL version 420,2013-05-31 09:10:00,
2013-05-31 05:16:00,64.0,62.4,30.12,West,270,0.0,0.0,94,0.00,,,0.00,WSDL version 420,2013-05-31 09:16:00,
2013-05-31 05:22:00,64.0,62.4,30.12,West,270,0.0,0.0,94,0.00,,,0.00,WSDL version 420,2013-05-31 09:22:00,
2013-05-31 05:28:00,63.7,62.1,30.12,West,270,0.0,0.0,94,0.00,,,0.00,WSDL version 420,2013-05-31 09:28:00,
2013-05-31 05:34:00,63.8,62.2,30.12,West,270,0.0,0.0,94,0.00,,,0.00,WSDL version 420,2013-05-31 09:34:00,
2013-05-31 05:40:00,64.0,62.3,30.12,West,270,0.0,0.0,94,0.00,,,0.00,WSDL version 420,2013-05-31 09:40:00,
2013-05-31 05:46:00,64.0,62.4,30.12,West,270,0.0,0.0,94,0.00,,,0.00,WSDL version 420,2013-05-31 09:46:00,
2013-05-31 05:52:00,64.0,62.4,30.12,West,270,0.0,0.0,94,0.00,,,0.00,WSDL version 420,2013-05-31 09:52:00,
2013-05-31 05:58:00,64.2,62.5,30.12,West,270,0.0,0.0,94,0.00,,,0.00,WSDL version 420,2013-05-31 09:58:00,
2013-05-31 06:04:00,64.2,62.5,30.12,West,270,0.0,0.0,94,0.00,,,0.00,WSDL version 420,2013-05-31 10:04:00,
2013-05-31 06:10:00,64.0,62.4,30.12,West,270,0.0,0.0,94,0.00,,,0.00,WSDL version 420,2013-05-31 10:10:00,
2013-05-31 06:16:00,64.0,62.4,30.15,West,270,0.0,0.0,94,0.00,,,0.00,WSDL version 420,2013-05-31 10:16:00,
2013-05-31 06:22:00,64.2,62.5,30.15,West,270,0.0,0.0,94,0.00,,,0.00,WSDL version 420,2013-05-31 10:22:00,
2013-05-31 06:28:00,64.4,62.8,30.15,West,270,0.0,0.0,94,0.00,,,0.00,WSDL version 420,2013-05-31 10:28:00,
2013-05-31 06:34:00,64.5,62.8,30.15,West,270,0.0,0.0,94,0.00,,,0.00,WSDL version 420,2013-05-31 10:34:00,
2013-05-31 06:40:00,64.8,63.1,30.15,West,270,0.0,0.0,94,0.00,,,0.00,WSDL version 420,2013-05-31 10:40:00,
2013-05-31 06:46:00,65.1,63.4,30.15,West,270,0.0,0.0,94,0.00,,,0.00,WSDL version 420,2013-05-31 10:46:00,
2013-05-31 06:52:00,65.3,63.7,30.15,West,270,0.0,0.0,94,0.00,,,0.00,WSDL version 420,2013-05-31 10:52:00,
2013-05-31 06:58:00,65.6,64.0,30.15,West,270,0.0,0.0,94,0.00,,,0.00,WSDL version 420,2013-05-31 10:58:00,
2013-05-31 07:04:00,65.8,64.1,30.15,West,270,0.0,0.0,94,0.00,,,0.00,WSDL version 420,2013-05-31 11:04:00,
2013-05-31 07:10:00,66.2,64.5,30.15,West,270,0.0,0.0,94,0.00,,,0.00,WSDL version 420,2013-05-31 11:10:00,
2013-05-31 07:17:00,66.5,64.9,30.15,West,270,0.0,0.0,94,0.00,,,0.00,WSDL version 420,2013-05-31 11:17:00,
2013-05-31 07:23:00,66.9,65.2,30.15,West,270,0.0,0.0,94,0.00,,,0.00,WSDL version 420,2013-05-31 11:23:00,
2013-05-31 07:29:00,67.3,65.7,30.15,NE,45,0.0,0.0,94,0.00,,,0.00,WSDL version 420,2013-05-31 11:29:00,
2013-05-31 07:35:00,67.6,66.0,30.15,NE,45,0.0,0.0,94,0.00,,,0.00,WSDL version 420,2013-05-31 11:35:00,
2013-05-31 07:41:00,68.4,66.5,30.15,NE,45,0.0,0.0,94,0.00,,,0.00,WSDL version 420,2013-05-31 11:41:00,
2013-05-31 07:47:00,68.7,67.1,30.15,NE,45,0.0,0.0,94,0.00,,,0.00,WSDL version 420,2013-05-31 11:47:00,
2013-05-31 07:53:00,69.4,67.7,30.15,NE,45,0.0,0.0,94,0.00,,,0.00,WSDL version 420,2013-05-31 11:53:00,
2013-05-31 07:59:00,69.8,67.9,30.15,NNE,15,0.0,0.0,93,0.00,,,0.00,WSDL version 420,2013-05-31 11:59:00,
2013-05-31 08:05:00,70.4,68.4,30.15,SSE,158,0.0,0.0,93,0.00,,,0.00,WSDL version 420,2013-05-31 12:05:00,
2013-05-31 08:11:00,70.9,68.9,30.15,South,180,0.0,0.0,93,0.00,,,0.00,WSDL version 420,2013-05-31 12:11:00,
2013-05-31 08:17:00,71.4,69.4,30.15,South,180,0.0,0.0,93,0.00,,,0.00,WSDL version 420,2013-05-31 12:17:00,
2013-05-31 08:23:00,72.1,69.9,30.15,SE,135,0.0,0.0,92,0.00,,,0.00,WSDL version 420,2013-05-31 12:23:00,
2013-05-31 08:29:00,72.9,70.5,30.15,SE,135,0.0,0.0,92,0.00,,,0.00,WSDL version 420,2013-05-31 12:29:00,
2013-05-31 08:35:00,73.5,70.7,30.15,SE,135,0.0,0.0,91,0.00,,,0.00,WSDL version 420,2013-05-31 12:35:00,
2013-05-31 08:41:00,74.2,71.5,30.15,South,180,0.0,0.0,91,0.00,,,0.00,WSDL version 420,2013-05-31 12:41:00,
2013-05-31 08:47:00,74.9,71.6,30.15,South,180,0.0,0.0,89,0.00,,,0.00,WSDL version 420,2013-05-31 12:47:00,
2013-05-31 08:53:00,75.5,71.5,30.15,South,180,0.0,0.0,87,0.00,,,0.00,WSDL version 420,2013-05-31 12:53:00,
2013-05-31 08:59:00,75.9,71.9,30.15,ESE,118,0.0,0.0,87,0.00,,,0.00,WSDL version 420,2013-05-31 12:59:00,
2013-05-31 09:05:00,76.7,71.7,30.15,South,180,0.0,1.1,84,0.00,,,0.00,WSDL version 420,2013-05-31 13:05:00,
2013-05-31 09:11:00,77.4,71.0,30.15,SSE,165,1.8,2.7,80,0.00,,,0.00,WSDL version 420,2013-05-31 13:11:00,
2013-05-31 09:17:00,77.8,71.4,30.15,SSE,158,0.4,2.7,81,0.00,,,0.00,WSDL version 420,2013-05-31 13:17:00,
2013-05-31 09:23:00,78.4,70.4,30.15,South,180,0.0,1.3,75,0.00,,,0.00,WSDL version 420,2013-05-31 13:23:00,
2013-05-31 09:29:00,78.9,70.3,30.15,East,90,0.0,2.2,74,0.00,,,0.00,WSDL version 420,2013-05-31 13:29:00,
2013-05-31 09:35:00,79.6,70.0,30.15,South,180,0.4,2.5,73,0.00,,,0.00,WSDL version 420,2013-05-31 13:35:00,
2013-05-31 09:41:00,79.8,71.1,30.15,NNE,17,0.0,2.5,74,0.00,,,0.00,WSDL version 420,2013-05-31 13:41:00,
2013-05-31 09:47:00,80.6,70.6,30.12,East,101,0.4,2.7,74,0.00,,,0.00,WSDL version 420,2013-05-31 13:47:00,
2013-05-31 09:53:00,80.9,70.7,30.12,South,180,0.0,2.0,73,0.00,,,0.00,WSDL version 420,2013-05-31 13:53:00,
2013-05-31 09:59:00,81.4,69.8,30.12,NNW,345,0.0,2.0,71,0.00,,,0.00,WSDL version 420,2013-05-31 13:59:00,
2013-05-31 10:06:00,82.1,70.1,30.12,NW,326,1.0,2.0,67,0.00,,,0.00,WSDL version 420,2013-05-31 14:06:00,
2013-05-31 10:12:00,82.6,69.8,30.12,SW,218,0.6,2.0,65,0.00,,,0.00,WSDL version 420,2013-05-31 14:12:00,
2013-05-31 10:18:00,83.7,69.6,30.12,SSE,150,0.8,2.5,64,0.00,,,0.00,WSDL version 420,2013-05-31 14:18:00,
2013-05-31 10:24:00,84.2,67.1,30.12,South,180,0.0,2.5,58,0.00,,,0.00,WSDL version 420,2013-05-31 14:24:00,
2013-05-31 10:30:00,84.5,69.6,30.12,ESE,113,1.3,2.0,60,0.00,,,0.00,WSDL version 420,2013-05-31 14:30:00,
2013-05-31 10:36:00,84.9,68.9,30.12,SE,143,1.3,2.9,59,0.00,,,0.00,WSDL version 420,2013-05-31 14:36:00,
2013-05-31 10:42:00,85.1,68.3,30.12,South,180,0.3,1.6,53,0.00,,,0.00,WSDL version 420,2013-05-31 14:42:00,
2013-05-31 10:48:00,85.2,68.1,30.12,WNW,293,0.0,1.6,54,0.00,,,0.00,WSDL version 420,2013-05-31 14:48:00,
2013-05-31 10:54:00,86.1,67.8,30.12,ESE,105,2.5,3.4,51,0.00,,,0.00,WSDL version 420,2013-05-31 14:54:00,
2013-05-31 11:00:00,86.5,68.5,30.12,South,169,0.5,3.4,55,0.00,,,0.00,WSDL version 420,2013-05-31 15:00:00,
2013-05-31 11:06:00,87.0,67.2,30.12,NE,56,0.4,2.0,53,0.00,,,0.00,WSDL version 420,2013-05-31 15:06:00,
2013-05-31 11:12:00,87.3,68.6,30.12,NNE,15,1.2,2.0,53,0.00,,,0.00,WSDL version 420,2013-05-31 15:12:00,
2013-05-31 11:18:00,88.0,68.7,30.12,East,90,1.6,2.0,55,0.00,,,0.00,WSDL version 420,2013-05-31 15:18:00,
2013-05-31 11:24:00,87.6,67.8,30.12,SE,135,0.8,2.9,52,0.00,,,0.00,WSDL version 420,2013-05-31 15:24:00,
2013-05-31 11:30:00,87.7,66.6,30.12,North,360,0.0,2.0,51,0.00,,,0.00,WSDL version 420,2013-05-31 15:30:00,
2013-05-31 11:36:00,88.0,65.4,30.12,NNW,338,0.7,2.0,45,0.00,,,0.00,WSDL version 420,2013-05-31 15:36:00,
2013-05-31 11:42:00,88.3,65.4,30.12,SE,135,1.6,3.6,46,0.00,,,0.00,WSDL version 420,2013-05-31 15:42:00,
2013-05-31 11:48:00,88.9,65.9,30.12,ESE,113,3.1,3.6,48,0.00,,,0.00,WSDL version 420,2013-05-31 15:48:00,
2013-05-31 11:54:00,89.4,65.2,30.12,SE,128,1.8,3.1,43,0.00,,,0.00,WSDL version 420,2013-05-31 15:54:00,
2013-05-31 12:00:00,89.5,65.4,30.12,SSE,158,0.0,3.1,44,0.00,,,0.00,WSDL version 420,2013-05-31 16:00:00,
2013-05-31 12:06:00,90.0,65.4,30.12,NE,45,2.0,2.2,43,0.00,,,0.00,WSDL version 420,2013-05-31 16:06:00,
2013-05-31 12:12:00,90.4,64.0,30.12,SSE,149,2.1,2.9,42,0.00,,,0.00,WSDL version 420,2013-05-31 16:12:00,
2013-05-31 12:18:00,90.5,64.1,30.12,ESE,113,2.8,3.4,42,0.00,,,0.00,WSDL version 420,2013-05-31 16:18:00,
2013-05-31 12:24:00,90.9,64.2,30.12,NNW,338,0.4,3.4,41,0.00,,,0.00,WSDL version 420,2013-05-31 16:24:00,
2013-05-31 12:30:00,90.8,65.2,30.12,SSW,203,0.4,1.3,42,0.00,,,0.00,WSDL version 420,2013-05-31 16:30:00,
2013-05-31 12:36:00,91.3,64.1,30.09,ENE,75,2.9,3.1,40,0.00,,,0.00,WSDL version 420,2013-05-31 16:36:00,
2013-05-31 12:42:00,92.0,64.6,30.09,East,90,1.3,3.1,40,0.00,,,0.00,WSDL version 420,2013-05-31 16:42:00,
2013-05-31 12:48:00,91.9,65.3,30.09,SE,135,3.4,3.4,40,0.00,,,0.00,WSDL version 420,2013-05-31 16:48:00,
2013-05-31 12:54:00,92.8,65.6,30.09,SE,128,0.0,3.4,41,0.00,,,0.00,WSDL version 420,2013-05-31 16:54:00,
2013-05-31 13:01:00,92.2,64.4,30.09,SSE,165,1.4,2.0,41,0.00,,,0.00,WSDL version 420,2013-05-31 17:01:00,
2013-05-31 13:07:00,91.3,63.2,30.09,WSW,255,0.5,3.1,40,0.00,,,0.00,WSDL version 420,2013-05-31 17:07:00,
2013-05-31 13:13:00,90.5,64.1,30.09,SSE,165,0.0,3.1,42,0.00,,,0.00,WSDL version 420,2013-05-31 17:13:00,
2013-05-31 13:19:00,89.7,64.9,30.09,SE,128,0.6,0.9,43,0.00,,,0.00,WSDL version 420,2013-05-31 17:19:00,
2013-05-31 13:25:00,90.5,63.8,30.09,SE,135,0.0,1.6,41,0.00,,,0.00,WSDL version 420,2013-05-31 17:25:00,
2013-05-31 13:31:00,91.0,63.4,30.09,NNW,338,0.0,1.3,40,0.00,,,0.00,WSDL version 420,2013-05-31 17:31:00,
2013-05-31 13:37:00,90.9,64.3,30.09,SSW,210,0.0,1.3,41,0.00,,,0.00,WSDL version 420,2013-05-31 17:37:00,
2013-05-31 13:43:00,90.2,64.0,30.09,WSW,240,0.0,2.2,42,0.00,,,0.00,WSDL version 420,2013-05-31 17:43:00,
2013-05-31 13:49:00,90.0,62.9,30.09,South,180,0.3,1.1,41,0.00,,,0.00,WSDL version 420,2013-05-31 17:49:00,
2013-05-31 13:55:00,90.1,63.7,30.09,SW,214,0.2,0.9,41,0.00,,,0.00,WSDL version 420,2013-05-31 17:55:00,
2013-05-31 14:01:00,89.7,64.0,30.09,WNW,293,0.3,1.1,43,0.00,,,0.00,WSDL version 420,2013-05-31 18:01:00,
2013-05-31 14:07:00,90.5,64.0,30.09,SE,143,1.6,2.0,42,0.00,,,0.00,WSDL version 420,2013-05-31 18:07:00,
2013-05-31 14:13:00,91.0,65.4,30.09,South,180,0.0,3.4,44,0.00,,,0.00,WSDL version 420,2013-05-31 18:13:00,
2013-05-31 14:19:00,90.6,64.8,30.06,SSW,203,4.3,4.3,43,0.00,,,0.00,WSDL version 420,2013-05-31 18:19:00,
2013-05-31 14:25:00,90.1,63.9,30.06,SSE,165,0.4,4.3,42,0.00,,,0.00,WSDL version 420,2013-05-31 18:25:00,
2013-05-31 14:31:00,89.5,64.3,30.06,SSW,203,1.6,3.1,43,0.00,,,0.00,WSDL version 420,2013-05-31 18:31:00,
2013-05-31 14:37:00,88.7,63.7,30.06,SW,214,0.2,2.7,44,0.00,,,0.00,WSDL version 420,2013-05-31 18:37:00,
2013-05-31 14:43:00,89.6,63.3,30.06,SSE,165,0.4,3.6,42,0.00,,,0.00,WSDL version 420,2013-05-31 18:43:00,
2013-05-31 14:49:00,89.2,64.0,30.06,SE,124,1.1,2.2,43,0.00,,,0.00,WSDL version 420,2013-05-31 18:49:00,
2013-05-31 14:55:00,88.4,63.7,30.06,South,180,0.4,2.2,44,0.00,,,0.00,WSDL version 420,2013-05-31 18:55:00,
2013-05-31 15:01:00,88.4,63.9,30.06,SE,135,1.4,2.2,43,0.00,,,0.00,WSDL version 420,2013-05-31 19:01:00,
2013-05-31 15:07:00,89.1,64.4,30.06,WNW,293,0.8,3.1,44,0.00,,,0.00,WSDL version 420,2013-05-31 19:07:00,
2013-05-31 15:13:00,89.1,64.2,30.06,SSW,203,1.1,3.1,43,0.00,,,0.00,WSDL version 420,2013-05-31 19:13:00,
2013-05-31 15:19:00,89.0,63.2,30.06,NNE,30,1.7,4.3,42,0.00,,,0.00,WSDL version 420,2013-05-31 19:19:00,
2013-05-31 15:25:00,88.8,62.1,30.06,South,180,1.1,4.3,41,0.00,,,0.00,WSDL version 420,2013-05-31 19:25:00,
2013-05-31 15:31:00,88.7,62.0,30.06,SW,225,0.0,2.9,41,0.00,,,0.00,WSDL version 420,2013-05-31 19:31:00,
2013-05-31 15:37:00,88.3,61.9,30.06,East,90,0.9,2.9,41,0.00,,,0.00,WSDL version 420,2013-05-31 19:37:00,
2013-05-31 15:43:00,88.3,62.5,30.06,SW,225,0.0,2.5,42,0.00,,,0.00,WSDL version 420,2013-05-31 19:43:00,
2013-05-31 15:50:00,88.3,62.7,30.03,SE,131,0.5,4.0,43,0.00,,,0.00,WSDL version 420,2013-05-31 19:50:00,
2013-05-31 15:56:00,88.7,62.9,30.03,SW,218,2.7,4.0,43,0.00,,,0.00,WSDL version 420,2013-05-31 19:56:00,
2013-05-31 16:02:00,88.3,62.6,30.03,ENE,75,1.9,4.0,43,0.00,,,0.00,WSDL version 420,2013-05-31 20:02:00,
2013-05-31 16:08:00,88.4,62.4,30.03,NW,315,0.0,7.2,42,0.00,,,0.00,WSDL version 420,2013-05-31 20:08:00,
2013-05-31 16:14:00,88.2,62.5,30.03,SW,236,2.1,3.1,42,0.00,,,0.00,WSDL version 420,2013-05-31 20:14:00,
2013-05-31 16:20:00,87.6,62.6,30.03,WNW,293,0.9,3.1,44,0.00,,,0.00,WSDL version 420,2013-05-31 20:20:00,
2013-05-31 16:26:00,87.2,62.7,30.03,SE,135,4.9,4.9,44,0.00,,,0.00,WSDL version 420,2013-05-31 20:26:00,
2013-05-31 16:32:00,87.5,62.3,30.03,South,188,2.0,4.9,43,0.00,,,0.00,WSDL version 420,2013-05-31 20:32:00,
2013-05-31 16:38:00,87.4,62.2,30.03,SW,225,2.0,3.8,43,0.00,,,0.00,WSDL version 420,2013-05-31 20:38:00,
2013-05-31 16:44:00,87.1,62.5,30.03,NW,304,0.6,2.0,44,0.00,,,0.00,WSDL version 420,2013-05-31 20:44:00,
2013-05-31 16:50:00,87.1,62.5,30.03,East,90,2.0,2.5,44,0.00,,,0.00,WSDL version 420,2013-05-31 20:50:00,
2013-05-31 16:56:00,87.0,62.7,30.03,SW,214,1.0,3.4,45,0.00,,,0.00,WSDL version 420,2013-05-31 20:56:00,
2013-05-31 17:02:00,86.5,62.9,30.03,SW,225,2.0,2.0,45,0.00,,,0.00,WSDL version 420,2013-05-31 21:02:00,
2013-05-31 17:08:00,87.0,63.1,30.03,SSW,210,1.3,2.0,45,0.00,,,0.00,WSDL version 420,2013-05-31 21:08:00,
2013-05-31 17:14:00,86.5,63.3,30.03,South,180,0.0,3.4,47,0.00,,,0.00,WSDL version 420,2013-05-31 21:14:00,
2013-05-31 17:20:00,86.3,63.1,30.00,WSW,248,0.7,3.4,46,0.00,,,0.00,WSDL version 420,2013-05-31 21:20:00,
2013-05-31 17:26:00,86.6,63.4,30.00,SE,135,0.9,2.2,46,0.00,,,0.00,WSDL version 420,2013-05-31 21:26:00,
2013-05-31 17:32:00,86.5,63.0,30.00,South,180,0.0,0.9,46,0.00,,,0.00,WSDL version 420,2013-05-31 21:32:00,
2013-05-31 17:38:00,86.2,62.6,30.00,East,90,1.3,1.3,46,0.00,,,0.00,WSDL version 420,2013-05-31 21:38:00,
2013-05-31 17:44:00,85.8,63.3,30.00,SW,219,1.3,2.5,47,0.00,,,0.00,WSDL version 420,2013-05-31 21:44:00,
2013-05-31 17:50:00,85.6,63.1,30.00,West,270,0.7,2.5,47,0.00,,,0.00,WSDL version 420,2013-05-31 21:50:00,
2013-05-31 17:57:00,85.5,62.9,30.00,South,188,1.6,3.8,48,0.00,,,0.00,WSDL version 420,2013-05-31 21:57:00,
2013-05-31 18:03:00,85.2,62.7,30.00,SSE,158,0.0,4.0,47,0.00,,,0.00,WSDL version 420,2013-05-31 22:03:00,
2013-05-31 18:09:00,84.8,62.7,30.00,South,191,1.7,3.4,48,0.00,,,0.00,WSDL version 420,2013-05-31 22:09:00,
2013-05-31 18:15:00,84.5,62.7,30.00,SSW,203,0.0,3.4,48,0.00,,,0.00,WSDL version 420,2013-05-31 22:15:00,
2013-05-31 18:21:00,84.4,63.2,29.97,South,180,1.1,1.3,49,0.00,,,0.00,WSDL version 420,2013-05-31 22:21:00,
2013-05-31 18:27:00,83.8,63.5,29.97,SE,135,1.3,1.3,51,0.00,,,0.00,WSDL version 420,2013-05-31 22:27:00,
2013-05-31 18:33:00,83.4,63.9,29.97,SSW,210,0.7,2.2,52,0.00,,,0.00,WSDL version 420,2013-05-31 22:33:00,
2013-05-31 18:39:00,83.4,64.0,29.97,WSW,240,2.1,5.4,52,0.00,,,0.00,WSDL version 420,2013-05-31 22:39:00,
2013-05-31 18:45:00,83.4,64.0,29.97,NE,45,2.2,5.4,52,0.00,,,0.00,WSDL version 420,2013-05-31 22:45:00,
2013-05-31 18:51:00,82.8,64.1,29.97,West,270,1.3,2.7,54,0.00,,,0.00,WSDL version 420,2013-05-31 22:51:00,
2013-05-31 18:57:00,82.7,63.8,29.97,SSE,158,1.3,4.9,53,0.00,,,0.00,WSDL version 420,2013-05-31 22:57:00,
2013-05-31 19:03:00,82.5,64.0,29.97,SSW,203,1.1,4.9,54,0.00,,,0.00,WSDL version 420,2013-05-31 23:03:00,
2013-05-31 19:09:00,82.0,64.0,29.97,South,180,2.5,4.3,55,0.00,,,0.00,WSDL version 420,2013-05-31 23:09:00,
2013-05-31 19:15:00,81.4,63.7,29.97,NW,309,2.4,3.8,55,0.00,,,0.00,WSDL version 420,2013-05-31 23:15:00,
2013-05-31 19:21:00,81.4,63.7,29.97,SW,225,1.1,3.8,55,0.00,,,0.00,WSDL version 420,2013-05-31 23:21:00,
2013-05-31 19:27:00,81.1,63.1,29.97,ENE,68,1.6,2.7,54,0.00,,,0.00,WSDL version 420,2013-05-31 23:27:00,
2013-05-31 19:33:00,81.1,62.9,29.97,South,191,2.5,3.4,54,0.00,,,0.00,WSDL version 420,2013-05-31 23:33:00,
2013-05-31 19:39:00,80.6,62.4,29.97,SSW,203,1.6,3.4,54,0.00,,,0.00,WSDL version 420,2013-05-31 23:39:00,
2013-05-31 19:45:00,80.2,62.4,29.97,South,180,2.7,2.7,54,0.00,,,0.00,WSDL version 420,2013-05-31 23:45:00,
2013-05-31 19:51:00,79.8,62.2,30.00,WSW,248,1.3,2.7,55,0.00,,,0.00,WSDL version 420,2013-05-31 23:51:00,
2013-05-31 19:57:00,79.2,62.1,30.00,WSW,248,1.3,1.3,56,0.00,,,0.00,WSDL version 420,2013-05-31 23:57:00,
2013-05-31 20:03:00,78.4,62.5,30.00,North,-999,-999.0,-999.0,59,0.00,,,0.00,WSDL version 420,2013-06-01 00:03:00,
2013-05-31 20:09:00,78.0,62.4,30.00,North,-999,-999.0,-999.0,58,0.00,,,0.00,WSDL version 420,2013-06-01 00:09:00,
2013-05-31 20:15:00,77.3,62.3,30.00,North,-999,-999.0,-999.0,61,0.00,,,0.00,WSDL version 420,2013-06-01 00:15:00,
2013-05-31 20:21:00,76.6,62.3,30.00,North,-999,-999.0,-999.0,62,0.00,,,0.00,WSDL version 420,2013-06-01 00:21:00,
2013-05-31 20:27:00,75.8,62.3,30.00,North,-999,-999.0,-999.0,63,0.00,,,0.00,WSDL version 420,2013-06-01 00:27:00,
2013-05-31 20:33:00,75.4,62.4,30.00,North,-999,-999.0,-999.0,64,0.00,,,0.00,WSDL version 420,2013-06-01 00:33:00,
2013-05-31 20:39:00,74.9,62.4,30.00,North,-999,-999.0,-999.0,65,0.00,,,0.00,WSDL version 420,2013-06-01 00:39:00,
2013-05-31 20:46:00,74.4,62.1,30.00,North,-999,-999.0,-999.0,65,0.00,,,0.00,WSDL version 420,2013-06-01 00:46:00,
2013-05-31 20:52:00,74.0,62.2,30.00,North,-999,-999.0,-999.0,67,0.00,,,0.00,WSDL version 420,2013-06-01 00:52:00,
2013-05-31 20:58:00,73.8,62.1,30.00,North,-999,-999.0,-999.0,67,0.00,,,0.00,WSDL version 420,2013-06-01 00:58:00,
2013-05-31 21:04:00,73.5,62.5,30.00,North,-999,-999.0,-999.0,69,0.00,,,0.00,WSDL version 420,2013-06-01 01:04:00,
2013-05-31 21:10:00,73.1,62.3,30.00,West,270,0.0,0.0,70,0.00,,,0.00,WSDL version 420,2013-06-01 01:10:00,
2013-05-31 21:16:00,72.8,62.4,30.03,West,270,0.0,0.0,70,0.00,,,0.00,WSDL version 420,2013-06-01 01:16:00,
2013-05-31 21:22:00,72.3,62.4,30.03,West,270,0.0,0.0,71,0.00,,,0.00,WSDL version 420,2013-06-01 01:22:00,
2013-05-31 21:28:00,72.0,62.3,30.03,West,270,0.0,0.0,72,0.00,,,0.00,WSDL version 420,2013-06-01 01:28:00,
2013-05-31 21:34:00,71.7,62.4,30.03,West,270,0.0,0.0,73,0.00,,,0.00,WSDL version 420,2013-06-01 01:34:00,
2013-05-31 21:40:00,71.4,62.7,30.03,West,270,0.0,0.0,74,0.00,,,0.00,WSDL version 420,2013-06-01 01:40:00,
2013-05-31 21:46:00,71.1,62.5,30.03,West,270,0.0,0.0,75,0.00,,,0.00,WSDL version 420,2013-06-01 01:46:00,
2013-05-31 21:52:00,70.9,62.9,30.03,North,0,0.0,0.0,76,0.00,,,0.00,WSDL version 420,2013-06-01 01:52:00,
2013-05-31 21:58:00,70.8,63.1,30.03,North,-999,-999.0,-999.0,77,0.00,,,0.00,WSDL version 420,2013-06-01 01:58:00,
2013-05-31 22:04:00,70.5,63.2,30.03,North,-999,-999.0,-999.0,77,0.00,,,0.00,WSDL version 420,2013-06-01 02:04:00,
2013-05-31 22:10:00,70.2,63.0,30.03,North,-999,-999.0,-999.0,78,0.00,,,0.00,WSDL version 420,2013-06-01 02:10:00,
2013-05-31 22:16:00,70.2,63.3,30.03,North,-999,-999.0,-999.0,79,0.00,,,0.00,WSDL version 420,2013-06-01 02:16:00,
2013-05-31 22:22:00,69.8,63.1,30.03,West,270,0.0,0.0,80,0.00,,,0.00,WSDL version 420,2013-06-01 02:22:00,
2013-05-31 22:28:00,69.7,63.2,30.03,West,270,0.0,0.0,80,0.00,,,0.00,WSDL version 420,2013-06-01 02:28:00,
2013-05-31 22:34:00,69.4,63.0,30.03,West,270,0.0,0.0,80,0.00,,,0.00,WSDL version 420,2013-06-01 02:34:00,
2013-05-31 22:40:00,69.3,63.2,30.03,West,270,0.0,0.0,81,0.00,,,0.00,WSDL version 420,2013-06-01 02:40:00,
2013-05-31 22:46:00,69.1,63.2,30.03,West,270,0.0,0.0,81,0.00,,,0.00,WSDL version 420,2013-06-01 02:46:00,
2013-05-31 22:52:00,68.8,63.0,30.03,West,270,0.0,0.0,82,0.00,,,0.00,WSDL version 420,2013-06-01 02:52:00,
2013-05-31 22:58:00,68.8,63.0,30.03,West,270,0.0,0.0,82,0.00,,,0.00,WSDL version 420,2013-06-01 02:58:00,
2013-05-31 23:04:00,68.7,63.2,30.03,West,270,0.0,0.0,83,0.00,,,0.00,WSDL version 420,2013-06-01 03:04:00,
2013-05-31 23:10:00,68.4,62.9,30.03,West,270,0.0,0.0,83,0.00,,,0.00,WSDL version 420,2013-06-01 03:10:00,
2013-05-31 23:16:00,68.2,63.1,30.03,West,270,0.0,0.0,84,0.00,,,0.00,WSDL version 420,2013-06-01 03:16:00,
2013-05-31 23:22:00,68.0,63.0,30.03,West,270,0.0,0.0,84,0.00,,,0.00,WSDL version 420,2013-06-01 03:22:00,
2013-05-31 23:29:00,67.8,62.8,30.03,West,270,0.0,0.0,84,0.00,,,0.00,WSDL version 420,2013-06-01 03:29:00,
2013-05-31 23:35:00,67.7,62.7,30.03,West,270,0.0,0.0,83,0.00,,,0.00,WSDL version 420,2013-06-01 03:35:00,
2013-05-31 23:41:00,67.6,62.9,30.03,West,270,0.0,0.0,84,0.00,,,0.00,WSDL version 420,2013-06-01 03:41:00,
2013-05-31 23:47:00,67.5,62.7,30.03,West,270,0.0,0.0,86,0.00,,,0.00,WSDL version 420,2013-06-01 03:47:00,
2013-05-31 23:53:00,67.4,62.9,30.03,West,270,0.0,0.0,86,0.00,,,0.00,WSDL version 420,2013-06-01 03:53:00,
2013-05-31 23:59:00,67.4,62.9,30.03,West,270,0.0,0.0,86,0.00,,,0.00,WSDL version 420,2013-06-01 03:59:00,